DKH1114 ZSQD-ZSPD
Flight info
| Callsign | DKH1114 |
|---|---|
| Flight time | 1h 4m |
| Altitude | 32100 |
| Route | LAT81D LATUX W108 MATNU W115 PINOT |
| Aircraft | A333/H-SDE3GHIJ2J3J5M1RVWXY/LB2D1 |
Departure
| Time | 2026-05-04 14:53 |
|---|---|
| Airport | Qingdao Jiaodong International Airport (ZSQD) |
Arrival
| Time | 2026-05-04 15:58 |
|---|---|
| Airport | Shanghai Pudong International Airport (ZSPD) |
| Time | Latitude | Longitude | Altitude | Speed | Heading |
|---|---|---|---|---|---|
| 2026-05-04 14:48 | 36.36371 | 120.08272 | 39 ft | 0 kts | 192° |
| 2026-05-04 14:49 | 36.36406 | 120.08282 | 38 ft | 20 kts | 192° |
| 2026-05-04 14:50 | 36.36521 | 120.08314 | 36 ft | 9 kts | 199° |
| 2026-05-04 14:50 | 36.36533 | 120.08327 | 36 ft | 0 kts | 266° |
| 2026-05-04 14:50 | 36.36532 | 120.08315 | 36 ft | 2 kts | 266° |
| 2026-05-04 14:50 | 36.36531 | 120.08268 | 36 ft | 12 kts | 272° |
| 2026-05-04 14:51 | 36.36559 | 120.08101 | 35 ft | 26 kts | 280° |
| 2026-05-04 14:51 | 36.36524 | 120.07933 | 33 ft | 21 kts | 252° |
| 2026-05-04 14:51 | 36.36474 | 120.07740 | 34 ft | 25 kts | 252° |
| 2026-05-04 14:51 | 36.36507 | 120.07618 | 34 ft | 18 kts | 343° |
| 2026-05-04 14:52 | 36.36664 | 120.07556 | 33 ft | 27 kts | 343° |
| 2026-05-04 14:52 | 36.36885 | 120.07471 | 33 ft | 42 kts | 343° |
| 2026-05-04 14:52 | 36.37078 | 120.07343 | 33 ft | 19 kts | 253° |
| 2026-05-04 14:52 | 36.37019 | 120.07211 | 33 ft | 13 kts | 194° |
| 2026-05-04 14:53 | 36.36925 | 120.07237 | 33 ft | 15 kts | 162° |
| 2026-05-04 14:53 | 36.36610 | 120.07358 | 35 ft | 87 kts | 162° |
| 2026-05-04 14:53 | 36.35786 | 120.07687 | 45 ft | 155 kts | 164° |
| 2026-05-04 14:53 | 36.34679 | 120.08103 | 727 ft | 161 kts | 163° |
| 2026-05-04 14:54 | 36.33655 | 120.08540 | 1833 ft | 150 kts | 162° |
| 2026-05-04 14:54 | 36.32576 | 120.08987 | 2323 ft | 184 kts | 165° |
| 2026-05-04 14:54 | 36.31210 | 120.09525 | 3007 ft | 229 kts | 165° |
| 2026-05-04 14:54 | 36.29598 | 120.10149 | 4415 ft | 260 kts | 165° |
| 2026-05-04 14:55 | 36.27892 | 120.10913 | 6145 ft | 282 kts | 153° |
| 2026-05-04 14:55 | 36.26464 | 120.12556 | 8106 ft | 294 kts | 121° |
| 2026-05-04 14:55 | 36.25839 | 120.14772 | 10313 ft | 289 kts | 95° |
| 2026-05-04 14:55 | 36.26025 | 120.17193 | 11965 ft | 284 kts | 71° |
| 2026-05-04 14:56 | 36.26924 | 120.19382 | 12489 ft | 299 kts | 55° |
| 2026-05-04 14:56 | 36.27836 | 120.21750 | 13294 ft | 309 kts | 68° |
| 2026-05-04 14:56 | 36.28553 | 120.24287 | 14227 ft | 312 kts | 70° |
| 2026-05-04 14:56 | 36.29231 | 120.26874 | 15156 ft | 315 kts | 70° |
| 2026-05-04 14:57 | 36.29896 | 120.29520 | 16052 ft | 318 kts | 73° |
| 2026-05-04 14:57 | 36.30007 | 120.32243 | 16852 ft | 326 kts | 97° |
| 2026-05-04 14:57 | 36.29210 | 120.34910 | 17613 ft | 336 kts | 119° |
| 2026-05-04 14:57 | 36.27631 | 120.37195 | 17644 ft | 368 kts | 140° |
| 2026-05-04 14:58 | 36.25285 | 120.38805 | 17663 ft | 397 kts | 160° |
| 2026-05-04 14:58 | 36.22489 | 120.39382 | 17904 ft | 414 kts | 179° |
| 2026-05-04 14:58 | 36.19623 | 120.39738 | 18538 ft | 421 kts | 166° |
| 2026-05-04 14:58 | 36.16858 | 120.40938 | 19296 ft | 423 kts | 160° |
| 2026-05-04 14:59 | 36.14021 | 120.42070 | 19967 ft | 428 kts | 162° |
| 2026-05-04 14:59 | 36.11177 | 120.43178 | 20692 ft | 431 kts | 163° |
| 2026-05-04 14:59 | 36.05442 | 120.45399 | 21989 ft | 439 kts | 163° |
| 2026-05-04 15:00 | 36.02493 | 120.46540 | 22605 ft | 443 kts | 163° |
| 2026-05-04 15:00 | 35.99534 | 120.47684 | 23189 ft | 448 kts | 163° |
| 2026-05-04 15:00 | 35.96548 | 120.48839 | 23808 ft | 451 kts | 162° |
| 2026-05-04 15:01 | 35.90760 | 120.51904 | 24851 ft | 460 kts | 156° |
| 2026-05-04 15:01 | 35.87831 | 120.53517 | 25440 ft | 462 kts | 156° |
| 2026-05-04 15:01 | 35.84850 | 120.55154 | 25894 ft | 467 kts | 156° |
| 2026-05-04 15:01 | 35.81864 | 120.56790 | 26392 ft | 471 kts | 156° |
| 2026-05-04 15:02 | 35.78872 | 120.58431 | 26940 ft | 474 kts | 156° |
| 2026-05-04 15:02 | 35.75859 | 120.60078 | 27441 ft | 478 kts | 157° |
| 2026-05-04 15:02 | 35.72791 | 120.61766 | 27902 ft | 482 kts | 156° |
| 2026-05-04 15:02 | 35.69852 | 120.63760 | 28367 ft | 486 kts | 152° |
| 2026-05-04 15:03 | 35.66882 | 120.65794 | 28967 ft | 487 kts | 153° |
| 2026-05-04 15:03 | 35.63936 | 120.67796 | 29641 ft | 486 kts | 153° |
| 2026-05-04 15:03 | 35.60950 | 120.69817 | 30299 ft | 485 kts | 153° |
| 2026-05-04 15:03 | 35.58009 | 120.71803 | 30900 ft | 485 kts | 153° |
| 2026-05-04 15:04 | 35.55063 | 120.73793 | 31504 ft | 485 kts | 154° |
| 2026-05-04 15:04 | 35.52105 | 120.75786 | 32105 ft | 482 kts | 154° |
| 2026-05-04 15:04 | 35.46183 | 120.79404 | 32138 ft | 474 kts | 161° |
| 2026-05-04 15:05 | 35.40051 | 120.82436 | 32177 ft | 479 kts | 161° |
| 2026-05-04 15:05 | 35.33845 | 120.85509 | 32181 ft | 479 kts | 161° |
| 2026-05-04 15:06 | 35.27674 | 120.88560 | 32177 ft | 479 kts | 161° |
| 2026-05-04 15:07 | 35.18425 | 120.93122 | 32183 ft | 479 kts | 161° |
| 2026-05-04 15:07 | 35.12242 | 120.96184 | 32183 ft | 479 kts | 161° |
| 2026-05-04 15:08 | 35.06088 | 120.99244 | 32187 ft | 479 kts | 161° |
| 2026-05-04 15:08 | 34.99880 | 121.02323 | 32165 ft | 478 kts | 161° |
| 2026-05-04 15:09 | 34.93737 | 121.05366 | 32169 ft | 478 kts | 161° |
| 2026-05-04 15:09 | 34.87599 | 121.08401 | 32170 ft | 479 kts | 161° |
| 2026-05-04 15:10 | 34.78343 | 121.12969 | 32172 ft | 479 kts | 161° |
| 2026-05-04 15:11 | 34.69088 | 121.17527 | 32180 ft | 478 kts | 161° |
| 2026-05-04 15:11 | 34.62926 | 121.20554 | 32176 ft | 477 kts | 161° |
| 2026-05-04 15:12 | 34.56745 | 121.23587 | 32177 ft | 478 kts | 161° |
| 2026-05-04 15:12 | 34.50593 | 121.26600 | 32191 ft | 477 kts | 161° |
| 2026-05-04 15:13 | 34.44434 | 121.29611 | 32188 ft | 477 kts | 161° |
| 2026-05-04 15:13 | 34.38258 | 121.32627 | 32185 ft | 477 kts | 161° |
| 2026-05-04 15:14 | 34.32266 | 121.35548 | 32189 ft | 477 kts | 161° |
| 2026-05-04 15:14 | 34.26231 | 121.38485 | 32193 ft | 477 kts | 161° |
| 2026-05-04 15:15 | 34.20069 | 121.41481 | 32197 ft | 476 kts | 161° |
| 2026-05-04 15:15 | 34.13960 | 121.44443 | 32199 ft | 474 kts | 161° |
| 2026-05-04 15:16 | 34.04767 | 121.48896 | 32199 ft | 475 kts | 161° |
| 2026-05-04 15:17 | 33.95526 | 121.53360 | 32200 ft | 475 kts | 161° |
| 2026-05-04 15:17 | 33.86320 | 121.57797 | 32197 ft | 476 kts | 161° |
| 2026-05-04 15:18 | 33.80230 | 121.60726 | 32205 ft | 474 kts | 161° |
| 2026-05-04 15:19 | 33.71006 | 121.65163 | 32200 ft | 474 kts | 162° |
| 2026-05-04 15:19 | 33.61887 | 121.69627 | 32208 ft | 474 kts | 162° |
| 2026-05-04 15:20 | 33.55752 | 121.72625 | 32205 ft | 474 kts | 162° |
| 2026-05-04 15:20 | 33.49632 | 121.75616 | 32199 ft | 474 kts | 162° |
| 2026-05-04 15:21 | 33.43560 | 121.78579 | 32203 ft | 475 kts | 162° |
| 2026-05-04 15:22 | 33.34411 | 121.83037 | 32205 ft | 474 kts | 162° |
| 2026-05-04 15:22 | 33.25258 | 121.87485 | 32203 ft | 473 kts | 162° |
| 2026-05-04 15:23 | 33.19212 | 121.90419 | 32206 ft | 472 kts | 163° |
| 2026-05-04 15:23 | 33.13133 | 121.93362 | 32211 ft | 472 kts | 163° |
| 2026-05-04 15:24 | 33.00959 | 121.99248 | 32209 ft | 473 kts | 163° |
| 2026-05-04 15:25 | 32.94864 | 122.02187 | 32210 ft | 472 kts | 163° |
| 2026-05-04 15:26 | 32.85869 | 122.06522 | 32187 ft | 444 kts | 164° |
| 2026-05-04 15:26 | 32.83065 | 122.07870 | 32057 ft | 431 kts | 164° |
| 2026-05-04 15:26 | 32.77497 | 122.10536 | 31419 ft | 431 kts | 164° |
| 2026-05-04 15:27 | 32.74718 | 122.11867 | 31057 ft | 432 kts | 163° |
| 2026-05-04 15:27 | 32.69131 | 122.14543 | 30350 ft | 434 kts | 163° |
| 2026-05-04 15:28 | 32.63533 | 122.17224 | 29613 ft | 436 kts | 163° |
| 2026-05-04 15:28 | 32.60726 | 122.18565 | 29241 ft | 436 kts | 163° |
| 2026-05-04 15:28 | 32.55055 | 122.21275 | 28466 ft | 438 kts | 163° |
| 2026-05-04 15:29 | 32.52247 | 122.22614 | 28085 ft | 438 kts | 163° |
| 2026-05-04 15:30 | 32.41261 | 122.27849 | 26536 ft | 409 kts | 163° |
| 2026-05-04 15:30 | 32.33555 | 122.31509 | 25377 ft | 391 kts | 163° |
| 2026-05-04 15:31 | 32.28535 | 122.33890 | 24628 ft | 389 kts | 163° |
| 2026-05-04 15:31 | 32.26008 | 122.35086 | 24269 ft | 392 kts | 163° |
| 2026-05-04 15:32 | 32.18342 | 122.38715 | 23184 ft | 398 kts | 162° |
| 2026-05-04 15:32 | 32.13199 | 122.41148 | 22459 ft | 401 kts | 162° |
| 2026-05-04 15:33 | 32.08017 | 122.43597 | 21743 ft | 401 kts | 162° |
| 2026-05-04 15:34 | 32.00256 | 122.47256 | 20640 ft | 396 kts | 162° |
| 2026-05-04 15:34 | 31.97721 | 122.48450 | 20276 ft | 395 kts | 162° |
| 2026-05-04 15:34 | 31.92623 | 122.50848 | 19548 ft | 390 kts | 162° |
| 2026-05-04 15:35 | 31.87634 | 122.53191 | 18826 ft | 386 kts | 162° |
| 2026-05-04 15:35 | 31.85116 | 122.54375 | 18455 ft | 383 kts | 162° |
| 2026-05-04 15:35 | 31.82663 | 122.55524 | 18092 ft | 380 kts | 162° |
| 2026-05-04 15:36 | 31.77756 | 122.57824 | 17369 ft | 376 kts | 162° |
| 2026-05-04 15:36 | 31.75345 | 122.58953 | 17016 ft | 373 kts | 161° |
| 2026-05-04 15:36 | 31.72958 | 122.60072 | 16656 ft | 372 kts | 161° |
| 2026-05-04 15:37 | 31.70556 | 122.61195 | 16287 ft | 369 kts | 161° |
| 2026-05-04 15:37 | 31.68160 | 122.62315 | 15932 ft | 368 kts | 161° |
| 2026-05-04 15:37 | 31.65822 | 122.63400 | 15771 ft | 353 kts | 163° |
| 2026-05-04 15:37 | 31.63495 | 122.64349 | 15791 ft | 366 kts | 159° |
| 2026-05-04 15:38 | 31.61135 | 122.65563 | 15435 ft | 372 kts | 161° |
| 2026-05-04 15:38 | 31.58685 | 122.66241 | 15036 ft | 358 kts | 180° |
| 2026-05-04 15:38 | 31.56260 | 122.65868 | 14637 ft | 344 kts | 202° |
| 2026-05-04 15:38 | 31.54208 | 122.64529 | 14253 ft | 336 kts | 223° |
| 2026-05-04 15:39 | 31.52727 | 122.62496 | 13885 ft | 330 kts | 238° |
| 2026-05-04 15:39 | 31.51538 | 122.60231 | 13521 ft | 329 kts | 242° |
| 2026-05-04 15:39 | 31.49400 | 122.55514 | 12782 ft | 327 kts | 246° |
| 2026-05-04 15:40 | 31.48393 | 122.53150 | 12417 ft | 325 kts | 246° |
| 2026-05-04 15:40 | 31.47407 | 122.50799 | 12055 ft | 326 kts | 246° |
| 2026-05-04 15:40 | 31.46418 | 122.48428 | 11689 ft | 324 kts | 247° |
| 2026-05-04 15:40 | 31.45438 | 122.46034 | 11319 ft | 323 kts | 250° |
| 2026-05-04 15:41 | 31.44982 | 122.43527 | 10918 ft | 318 kts | 271° |
| 2026-05-04 15:41 | 31.44998 | 122.40960 | 10561 ft | 316 kts | 272° |
| 2026-05-04 15:41 | 31.45009 | 122.38398 | 10197 ft | 315 kts | 272° |
| 2026-05-04 15:41 | 31.45015 | 122.35835 | 9816 ft | 311 kts | 273° |
| 2026-05-04 15:42 | 31.45020 | 122.33359 | 9445 ft | 306 kts | 272° |
| 2026-05-04 15:42 | 31.45024 | 122.30888 | 9072 ft | 301 kts | 272° |
| 2026-05-04 15:42 | 31.45028 | 122.28454 | 8697 ft | 297 kts | 272° |
| 2026-05-04 15:42 | 31.45031 | 122.26081 | 8328 ft | 293 kts | 272° |
| 2026-05-04 15:43 | 31.45033 | 122.23682 | 7952 ft | 290 kts | 272° |
| 2026-05-04 15:43 | 31.45034 | 122.21343 | 7579 ft | 287 kts | 272° |
| 2026-05-04 15:43 | 31.45035 | 122.19029 | 7210 ft | 285 kts | 272° |
| 2026-05-04 15:43 | 31.45037 | 122.16718 | 6925 ft | 279 kts | 272° |
| 2026-05-04 15:44 | 31.45035 | 122.14537 | 6958 ft | 262 kts | 272° |
| 2026-05-04 15:44 | 31.45035 | 122.12444 | 6934 ft | 250 kts | 272° |
| 2026-05-04 15:44 | 31.45036 | 122.10419 | 6942 ft | 251 kts | 272° |
| 2026-05-04 15:44 | 31.45035 | 122.08371 | 6948 ft | 250 kts | 272° |
| 2026-05-04 15:45 | 31.45034 | 122.06383 | 6941 ft | 248 kts | 272° |
| 2026-05-04 15:45 | 31.45033 | 122.04315 | 6953 ft | 251 kts | 272° |
| 2026-05-04 15:45 | 31.45030 | 122.02317 | 6933 ft | 246 kts | 272° |
| 2026-05-04 15:45 | 31.45030 | 122.00260 | 6956 ft | 253 kts | 272° |
| 2026-05-04 15:46 | 31.45027 | 121.98237 | 6932 ft | 247 kts | 272° |
| 2026-05-04 15:46 | 31.45024 | 121.96225 | 6954 ft | 252 kts | 272° |
| 2026-05-04 15:46 | 31.45021 | 121.94187 | 6936 ft | 246 kts | 272° |
| 2026-05-04 15:46 | 31.45019 | 121.92142 | 6962 ft | 253 kts | 272° |
| 2026-05-04 15:47 | 31.45013 | 121.90126 | 6415 ft | 252 kts | 272° |
| 2026-05-04 15:47 | 31.45012 | 121.88050 | 5607 ft | 253 kts | 271° |
| 2026-05-04 15:47 | 31.45007 | 121.86080 | 5336 ft | 235 kts | 271° |
| 2026-05-04 15:47 | 31.45001 | 121.84221 | 5135 ft | 219 kts | 271° |
| 2026-05-04 15:48 | 31.44806 | 121.82516 | 4895 ft | 210 kts | 258° |
| 2026-05-04 15:48 | 31.44486 | 121.80868 | 4569 ft | 206 kts | 258° |
| 2026-05-04 15:48 | 31.43871 | 121.77602 | 4143 ft | 203 kts | 258° |
| 2026-05-04 15:49 | 31.43567 | 121.75991 | 4069 ft | 203 kts | 257° |
| 2026-05-04 15:49 | 31.43264 | 121.74384 | 4065 ft | 201 kts | 257° |
| 2026-05-04 15:49 | 31.42683 | 121.73032 | 3996 ft | 180 kts | 226° |
| 2026-05-04 15:49 | 31.41600 | 121.72458 | 3803 ft | 170 kts | 187° |
| 2026-05-04 15:50 | 31.40435 | 121.72602 | 3506 ft | 167 kts | 170° |
| 2026-05-04 15:50 | 31.39306 | 121.72904 | 3281 ft | 156 kts | 167° |
| 2026-05-04 15:50 | 31.38274 | 121.73238 | 3016 ft | 150 kts | 165° |
| 2026-05-04 15:50 | 31.37306 | 121.73576 | 2789 ft | 142 kts | 164° |
| 2026-05-04 15:51 | 31.36381 | 121.73912 | 2576 ft | 135 kts | 163° |
| 2026-05-04 15:51 | 31.35499 | 121.74239 | 2388 ft | 131 kts | 164° |
| 2026-05-04 15:51 | 31.34627 | 121.74564 | 2217 ft | 129 kts | 164° |
| 2026-05-04 15:51 | 31.33763 | 121.74889 | 2045 ft | 130 kts | 163° |
| 2026-05-04 15:52 | 31.32919 | 121.75212 | 1990 ft | 125 kts | 163° |
| 2026-05-04 15:52 | 31.32104 | 121.75526 | 1988 ft | 122 kts | 163° |
| 2026-05-04 15:52 | 31.31288 | 121.75838 | 1982 ft | 123 kts | 163° |
| 2026-05-04 15:52 | 31.30469 | 121.76148 | 1990 ft | 123 kts | 163° |
| 2026-05-04 15:53 | 31.29660 | 121.76456 | 1985 ft | 123 kts | 163° |
| 2026-05-04 15:53 | 31.28846 | 121.76765 | 1986 ft | 122 kts | 163° |
| 2026-05-04 15:53 | 31.28025 | 121.77075 | 1984 ft | 124 kts | 163° |
| 2026-05-04 15:53 | 31.27212 | 121.77383 | 1986 ft | 122 kts | 163° |
| 2026-05-04 15:54 | 31.26393 | 121.77694 | 1987 ft | 123 kts | 163° |
| 2026-05-04 15:54 | 31.25578 | 121.77995 | 1986 ft | 122 kts | 165° |
| 2026-05-04 15:54 | 31.24767 | 121.78299 | 1892 ft | 124 kts | 162° |
| 2026-05-04 15:54 | 31.23952 | 121.78626 | 1694 ft | 121 kts | 163° |
| 2026-05-04 15:55 | 31.23152 | 121.78934 | 1516 ft | 123 kts | 163° |
| 2026-05-04 15:55 | 31.22373 | 121.79230 | 1351 ft | 122 kts | 162° |
| 2026-05-04 15:55 | 31.21564 | 121.79536 | 1184 ft | 122 kts | 162° |
| 2026-05-04 15:55 | 31.20746 | 121.79845 | 1017 ft | 121 kts | 163° |
| 2026-05-04 15:56 | 31.19929 | 121.80151 | 850 ft | 122 kts | 162° |
| 2026-05-04 15:56 | 31.19119 | 121.80456 | 684 ft | 123 kts | 162° |
| 2026-05-04 15:56 | 31.18304 | 121.80764 | 506 ft | 123 kts | 161° |
| 2026-05-04 15:56 | 31.17477 | 121.81059 | 358 ft | 123 kts | 163° |
| 2026-05-04 15:57 | 31.16663 | 121.81363 | 210 ft | 124 kts | 162° |
| 2026-05-04 15:57 | 31.15837 | 121.81675 | 50 ft | 124 kts | 161° |
| 2026-05-04 15:57 | 31.15088 | 121.81966 | 23 ft | 88 kts | 163° |
| 2026-05-04 15:57 | 31.14674 | 121.82122 | 23 ft | 55 kts | 162° |
| 2026-05-04 15:58 | 31.14374 | 121.82182 | 25 ft | 40 kts | 188° |
| 2026-05-04 15:58 | 31.14099 | 121.82136 | 26 ft | 38 kts | 171° |
| 2026-05-04 15:58 | 31.13841 | 121.82229 | 27 ft | 36 kts | 161° |
| 2026-05-04 15:58 | 31.13593 | 121.82322 | 26 ft | 35 kts | 162° |
| 2026-05-04 15:59 | 31.13359 | 121.82371 | 26 ft | 32 kts | 184° |
| 2026-05-04 15:59 | 31.13199 | 121.82406 | 26 ft | 14 kts | 161° |
| 2026-05-04 15:59 | 31.13098 | 121.82446 | 26 ft | 14 kts | 161° |
| 2026-05-04 15:59 | 31.12980 | 121.82488 | 26 ft | 21 kts | 162° |
| 2026-05-04 16:00 | 31.12797 | 121.82557 | 26 ft | 32 kts | 162° |
| 2026-05-04 16:00 | 31.12676 | 121.82514 | 23 ft | 15 kts | 259° |
| 2026-05-04 16:00 | 31.12644 | 121.82389 | 23 ft | 16 kts | 252° |
| 2026-05-04 16:00 | 31.12607 | 121.82260 | 23 ft | 16 kts | 251° |
| 2026-05-04 16:01 | 31.12651 | 121.82182 | 23 ft | 12 kts | 340° |
| 2026-05-04 16:01 | 31.12736 | 121.82149 | 23 ft | 13 kts | 343° |
| 2026-05-04 16:01 | 31.12838 | 121.82112 | 23 ft | 19 kts | 342° |
| 2026-05-04 16:01 | 31.13000 | 121.82049 | 26 ft | 28 kts | 341° |
| 2026-05-04 16:02 | 31.13220 | 121.81966 | 27 ft | 38 kts | 341° |
| 2026-05-04 16:02 | 31.13503 | 121.81858 | 26 ft | 47 kts | 342° |
| 2026-05-04 16:02 | 31.14222 | 121.81589 | 27 ft | 56 kts | 342° |
| 2026-05-04 16:03 | 31.14598 | 121.81448 | 27 ft | 55 kts | 341° |
| 2026-05-04 16:03 | 31.14809 | 121.81368 | 26 ft | 24 kts | 341° |
| 2026-05-04 16:03 | 31.14850 | 121.81276 | 26 ft | 15 kts | 253° |
| 2026-05-04 16:03 | 31.14821 | 121.81174 | 26 ft | 14 kts | 253° |
| 2026-05-04 16:04 | 31.14809 | 121.81132 | 26 ft | 0 kts | 252° |
| 2026-05-04 16:04 | 31.14808 | 121.81126 | 26 ft | 4 kts | 252° |
| 2026-05-04 16:04 | 31.14771 | 121.81076 | 26 ft | 12 kts | 189° |
| 2026-05-04 16:05 | 31.14679 | 121.81066 | 26 ft | 18 kts | 226° |
| 2026-05-04 16:05 | 31.14652 | 121.80962 | 26 ft | 18 kts | 251° |
| 2026-05-04 16:05 | 31.14646 | 121.80724 | 26 ft | 12 kts | 344° |
| 2026-05-04 16:06 | 31.14723 | 121.80696 | 26 ft | 12 kts | 342° |
| 2026-05-04 16:06 | 31.14969 | 121.80602 | 26 ft | 17 kts | 339° |
| 2026-05-04 16:07 | 31.15066 | 121.80613 | 26 ft | 10 kts | 70° |
| 2026-05-04 16:08 | 31.15070 | 121.80643 | 26 ft | 0 kts | 72° |